Time;durP1;ratioP1;P1;durP2;ratioP2;P2;SDS_P1;SDS_P2;PMS_P1;PMS_P2;Temp;Humidity;BMP_temperature;BMP_pressure;BME280_temperature;BME280_humidity;BME280_pressure;Samples;Min_cycle;Max_cycle;Signal;HPM_P1;HPM_P2
2023/09/28 00:01:59;;;;;;;14.25;7.03;;;;;;;12.44;100.00;100580.63;5158200;27;20449;-62
2023/09/28 00:04:25;;;;;;;10.70;6.25;;;;;;;12.45;100.00;100579.47;5157846;27;20046;-65
2023/09/28 00:06:51;;;;;;;11.82;6.05;;;;;;;12.48;100.00;100581.53;5158253;27;20142;-65
2023/09/28 00:09:17;;;;;;;13.68;6.55;;;;;;;12.51;100.00;100576.50;5157692;27;20074;-64
2023/09/28 00:11:44;;;;;;;11.07;6.65;;;;;;;12.47;100.00;100576.41;5157727;27;20057;-64
2023/09/28 00:14:11;;;;;;;20.02;6.78;;;;;;;12.38;100.00;100573.75;5161461;27;20111;-65
2023/09/28 00:16:36;;;;;;;18.90;6.43;;;;;;;12.35;100.00;100571.69;5161585;27;20093;-64
2023/09/28 00:19:03;;;;;;;13.75;6.60;;;;;;;12.35;100.00;100581.88;5161599;27;20047;-65
2023/09/28 00:21:29;;;;;;;15.07;6.60;;;;;;;12.38;100.00;100608.69;5161424;27;20062;-65
2023/09/28 00:23:55;;;;;;;10.52;5.93;;;;;;;12.33;100.00;100606.16;5161498;27;20050;-63
2023/09/28 00:26:22;;;;;;;9.40;6.30;;;;;;;12.33;100.00;100606.16;5161372;27;20324;-62
2023/09/28 00:28:48;;;;;;;12.45;6.90;;;;;;;12.30;100.00;100596.66;5161635;27;20046;-65
2023/09/28 00:31:13;;;;;;;12.35;6.35;;;;;;;12.31;100.00;100600.22;5161253;27;20047;-65
2023/09/28 00:33:39;;;;;;;9.77;6.50;;;;;;;12.29;100.00;100599.75;5161161;27;20085;-65
2023/09/28 00:36:06;;;;;;;24.40;7.15;;;;;;;12.19;100.00;100600.97;5161029;27;20050;-66
2023/09/28 00:38:31;;;;;;;16.58;6.88;;;;;;;12.13;100.00;100610.59;5161310;27;20046;-62
2023/09/28 00:40:57;;;;;;;20.02;6.82;;;;;;;12.14;100.00;100632.25;5161236;27;20133;-63
2023/09/28 00:43:25;;;;;;;13.48;6.05;;;;;;;12.18;100.00;100632.38;5161182;27;20302;-63
2023/09/28 00:45:51;;;;;;;12.77;6.78;;;;;;;12.14;100.00;100625.97;5161264;27;20357;-65
2023/09/28 00:48:17;;;;;;;14.25;7.03;;;;;;;12.20;100.00;100628.16;5161073;27;20141;-65
2023/09/28 00:50:43;;;;;;;10.63;6.53;;;;;;;12.16;100.00;100607.97;5161124;27;20078;-63
2023/09/28 00:53:10;;;;;;;12.43;6.50;;;;;;;11.96;100.00;100626.13;5160917;27;20093;-62
2023/09/28 00:55:36;;;;;;;10.57;6.18;;;;;;;12.01;100.00;100636.91;5161277;27;20046;-65
2023/09/28 00:58:05;;;;;;;12.55;7.55;;;;;;;11.98;100.00;100645.03;5160831;27;20101;-62
2023/09/28 01:00:32;;;;;;;10.40;6.00;;;;;;;11.92;100.00;100640.88;5161209;27;20100;-63
2023/09/28 01:03:00;;;;;;;15.40;7.03;;;;;;;11.99;100.00;100652.13;5160617;27;20054;-64
2023/09/28 01:05:30;;;;;;;10.25;6.10;;;;;;;11.87;100.00;100652.09;5161033;27;20061;-65
2023/09/28 01:07:56;;;;;;;11.60;6.78;;;;;;;12.00;100.00;100651.00;5160889;27;20369;-65
2023/09/28 01:10:24;;;;;;;10.65;5.95;;;;;;;12.00;100.00;100648.25;5160765;27;20297;-63
2023/09/28 01:12:51;;;;;;;14.13;6.68;;;;;;;11.92;100.00;100635.38;5160837;27;20114;-65
2023/09/28 01:15:17;;;;;;;11.95;5.68;;;;;;;11.97;100.00;100646.19;5160506;27;20491;-63
2023/09/28 01:17:43;;;;;;;10.75;6.50;;;;;;;11.94;100.00;100639.41;5160643;27;20086;-62
2023/09/28 01:20:17;;;;;;;12.00;6.97;;;;;;;11.95;100.00;100631.97;5160374;27;20046;-63
2023/09/28 01:22:45;;;;;;;12.95;6.32;;;;;;;11.80;100.00;100632.56;5160756;27;20103;-62
2023/09/28 01:25:11;;;;;;;11.60;6.22;;;;;;;11.80;100.00;100644.34;5159505;27;20051;-65
2023/09/28 01:27:37;;;;;;;10.00;6.30;;;;;;;11.79;100.00;100642.72;5160768;27;20487;-66
2023/09/28 01:30:03;;;;;;;10.95;6.47;;;;;;;11.81;100.00;100645.97;5160295;27;20149;-65
2023/09/28 01:32:29;;;;;;;13.50;6.50;;;;;;;11.80;100.00;100654.56;5160148;27;20126;-63
2023/09/28 01:34:55;;;;;;;9.45;5.47;;;;;;;11.79;100.00;100650.97;5160446;27;20051;-64
2023/09/28 01:37:29;;;;;;;13.27;5.85;;;;;;;11.85;100.00;100649.66;5160081;27;20065;-62
2023/09/28 01:39:55;;;;;;;13.15;5.80;;;;;;;11.81;100.00;100643.22;5160376;27;20053;-63
2023/09/28 01:42:21;;;;;;;12.82;6.40;;;;;;;11.79;100.00;100645.47;5160136;27;20051;-63
2023/09/28 01:44:47;;;;;;;10.82;5.80;;;;;;;11.83;100.00;100643.69;5160412;27;20408;-63
2023/09/28 01:47:13;;;;;;;8.77;5.95;;;;;;;11.86;100.00;100645.78;5160123;27;20335;-62
2023/09/28 01:49:38;;;;;;;13.27;5.85;;;;;;;11.85;100.00;100644.16;5160393;27;20046;-63
2023/09/28 01:52:04;;;;;;;19.38;6.85;;;;;;;11.66;100.00;100650.13;5159979;27;20050;-62
2023/09/28 01:54:30;;;;;;;16.00;7.10;;;;;;;11.83;100.00;100653.84;5159819;27;20408;-64
2023/09/28 01:56:57;;;;;;;15.23;5.60;;;;;;;11.76;100.00;100644.22;5159876;27;20420;-64
2023/09/28 01:59:22;;;;;;;13.30;5.75;;;;;;;11.75;100.00;100641.81;5160216;27;20060;-64
2023/09/28 02:01:49;;;;;;;12.32;6.60;;;;;;;11.67;100.00;100634.47;5159695;27;20054;-65
2023/09/28 02:04:15;;;;;;;15.88;6.10;;;;;;;11.60;100.00;100639.69;5159857;27;20051;-66
2023/09/28 02:06:41;;;;;;;11.90;6.90;;;;;;;11.71;100.00;100646.38;5159984;27;20138;-66
2023/09/28 02:09:06;;;;;;;14.25;6.80;;;;;;;11.69;100.00;100643.94;5159762;27;20145;-65
2023/09/28 02:11:32;;;;;;;19.17;6.90;;;;;;;11.79;100.00;100648.22;5159984;27;20433;-66
2023/09/28 02:13:59;;;;;;;13.65;6.88;;;;;;;11.73;100.00;100646.84;5159641;27;20050;-62
2023/09/28 02:16:25;;;;;;;19.08;5.97;;;;;;;11.68;100.00;100644.28;5159802;27;20054;-64
2023/09/28 02:18:51;;;;;;;10.48;6.28;;;;;;;11.70;100.00;100637.34;5159560;27;20496;-64
2023/09/28 02:21:17;;;;;;;16.60;6.75;;;;;;;11.57;100.00;100643.91;5159759;27;20067;-65
2023/09/28 02:23:43;;;;;;;12.40;6.28;;;;;;;11.68;100.00;100644.28;5159338;27;20054;-65
2023/09/28 02:26:09;;;;;;;11.43;5.93;;;;;;;11.68;100.00;100641.53;5159781;27;20061;-65
2023/09/28 02:28:35;;;;;;;8.80;6.05;;;;;;;11.67;100.00;100639.94;5159277;27;20051;-65
2023/09/28 02:31:08;;;;;;;12.48;6.53;;;;;;;11.64;100.00;100641.41;5159548;27;20373;-62
2023/09/28 02:33:34;;;;;;;11.87;6.27;;;;;;;11.64;100.00;100644.16;5159320;27;20058;-64
2023/09/28 02:36:00;;;;;;;10.57;6.60;;;;;;;11.54;100.00;100652.81;5159338;27;20336;-64
2023/09/28 02:38:26;;;;;;;10.55;6.78;;;;;;;11.53;100.00;100651.22;5159468;27;20076;-65
2023/09/28 02:40:52;;;;;;;14.95;6.43;;;;;;;11.48;100.00;100654.16;5159026;27;20129;-64
2023/09/28 02:43:17;;;;;;;11.43;6.30;;;;;;;11.47;100.00;100658.03;5159336;27;20086;-65
2023/09/28 02:45:43;;;;;;;14.98;7.13;;;;;;;11.41;100.00;100662.13;5159105;27;20146;-63
2023/09/28 02:48:10;;;;;;;14.30;7.10;;;;;;;11.36;100.00;100665.84;5159244;27;20051;-64
2023/09/28 02:50:36;;;;;;;15.30;6.72;;;;;;;11.39;100.00;100678.91;5159030;27;20051;-63
2023/09/28 02:53:02;;;;;;;11.30;6.63;;;;;;;11.38;100.00;100671.03;5159369;27;20046;-63
2023/09/28 02:55:28;;;;;;;20.95;6.38;;;;;;;11.32;100.00;100675.88;5158863;27;20057;-63
2023/09/28 02:57:54;;;;;;;12.60;6.88;;;;;;;11.25;100.00;100670.94;5159248;27;20107;-64
2023/09/28 03:00:32;;;;;;;10.70;6.43;;;;;;;11.40;100.00;100666.81;5158771;27;20121;-64
2023/09/28 03:02:58;;;;;;;16.52;7.05;;;;;;;11.41;100.00;100670.34;5158886;27;20141;-62
2023/09/28 03:05:26;;;;;;;13.90;7.35;;;;;;;11.46;100.00;100676.47;5159099;27;20107;-62
2023/09/28 03:07:52;;;;;;;12.45;6.40;;;;;;;11.43;100.00;100679.03;5158830;27;20065;-62
2023/09/28 03:10:18;;;;;;;12.05;7.00;;;;;;;11.15;100.00;100676.81;5158810;27;20050;-62
2023/09/28 03:12:45;;;;;;;16.55;7.15;;;;;;;11.21;100.00;100680.16;5158633;27;20137;-64
2023/09/28 03:15:12;;;;;;;14.50;6.53;;;;;;;11.17;100.00;100681.97;5158994;27;20046;-64
2023/09/28 03:17:38;;;;;;;12.70;6.57;;;;;;;11.22;100.00;100684.50;5158488;27;20420;-64
2023/09/28 03:20:09;;;;;;;12.57;6.60;;;;;;;11.10;100.00;100684.44;5158972;27;20057;-64
2023/09/28 03:22:36;;;;;;;17.13;7.32;;;;;;;11.09;100.00;100680.88;5158376;27;20047;-65
2023/09/28 03:25:06;;;;;;;14.20;6.75;;;;;;;11.07;100.00;100680.41;5158650;27;20206;-62
2023/09/28 03:27:32;;;;;;;14.77;6.60;;;;;;;11.08;100.00;100677.31;5158617;27;20058;-63
2023/09/28 03:29:58;;;;;;;13.98;7.75;;;;;;;11.12;100.00;100682.16;5158522;27;20335;-65
2023/09/28 03:32:23;;;;;;;11.90;6.68;;;;;;;11.13;100.00;100679.09;5158356;27;20073;-65
2023/09/28 03:34:49;;;;;;;15.15;7.60;;;;;;;11.13;100.00;100681.00;5158434;27;20050;-65
2023/09/28 03:37:18;;;;;;;10.95;6.55;;;;;;;11.09;100.00;100686.34;5158617;27;20054;-64
2023/09/28 03:39:45;;;;;;;16.92;7.80;;;;;;;11.08;100.00;100679.28;5158195;27;20057;-64
2023/09/28 03:42:11;;;;;;;11.27;7.43;;;;;;;11.05;100.00;100675.25;5158552;27;20096;-63
2023/09/28 03:44:36;;;;;;;16.70;7.95;;;;;;;11.10;100.00;100677.00;5158090;27;20134;-64
2023/09/28 03:47:02;;;;;;;11.05;7.00;;;;;;;11.05;100.00;100677.97;5157972;27;20419;-65
2023/09/28 03:49:28;;;;;;;12.88;7.32;;;;;;;11.03;100.00;100679.47;5158072;27;20046;-65
2023/09/28 03:51:54;;;;;;;12.85;6.88;;;;;;;11.01;100.00;100676.25;5158463;27;20126;-65
2023/09/28 03:54:20;;;;;;;12.18;7.22;;;;;;;11.00;100.00;100675.44;5158216;27;20103;-65
2023/09/28 03:56:47;;;;;;;14.85;8.05;;;;;;;11.04;100.00;100676.38;5157929;27;20123;-63
2023/09/28 03:59:12;;;;;;;12.90;7.47;;;;;;;11.08;100.00;100685.56;5158162;27;20133;-65
2023/09/28 04:01:44;;;;;;;24.48;8.52;;;;;;;11.01;100.00;100679.00;5157874;27;20442;-64
2023/09/28 04:04:10;;;;;;;20.08;7.97;;;;;;;10.90;100.00;100684.06;5158121;27;20051;-64
2023/09/28 04:06:36;;;;;;;16.73;7.75;;;;;;;10.95;100.00;100685.78;5157795;27;20047;-63
2023/09/28 04:09:02;;;;;;;15.50;7.50;;;;;;;10.78;100.00;100682.00;5158041;27;20050;-64
2023/09/28 04:11:28;;;;;;;14.60;7.20;;;;;;;10.90;100.00;100675.03;5157873;27;20097;-65
2023/09/28 04:13:55;;;;;;;13.68;7.60;;;;;;;10.87;100.00;100670.19;5158181;27;20430;-63
2023/09/28 04:16:21;;;;;;;13.00;7.65;;;;;;;10.94;100.00;100678.72;5157684;27;20442;-63
2023/09/28 04:18:47;;;;;;;13.52;6.82;;;;;;;11.02;100.00;100683.34;5158104;27;20421;-61
2023/09/28 04:21:13;;;;;;;15.63;7.28;;;;;;;11.05;100.00;100683.47;5157586;27;20072;-62
2023/09/28 04:23:39;;;;;;;10.57;6.90;;;;;;;11.12;100.00;100687.66;5157672;27;20073;-64
2023/09/28 04:26:05;;;;;;;13.52;7.22;;;;;;;11.17;100.00;100682.78;5157638;27;20087;-65
2023/09/28 04:28:31;;;;;;;12.05;6.75;;;;;;;11.25;100.00;100686.59;5157552;27;20047;-64
2023/09/28 04:30:58;;;;;;;15.23;8.25;;;;;;;11.31;100.00;100693.50;5157607;27;20051;-67
2023/09/28 04:33:24;;;;;;;10.88;6.97;;;;;;;11.24;100.00;100685.81;5157492;27;20133;-67
2023/09/28 04:35:50;;;;;;;19.38;7.60;;;;;;;11.33;100.00;100691.25;5157808;27;20141;-64
2023/09/28 04:38:16;;;;;;;10.25;6.35;;;;;;;11.39;100.00;100684.41;5157343;27;20047;-65
2023/09/28 04:40:42;;;;;;;13.02;7.05;;;;;;;11.46;100.00;100684.69;5157740;27;20109;-61
2023/09/28 04:43:08;;;;;;;14.10;7.18;;;;;;;11.53;100.00;100689.66;5157074;27;20050;-65
2023/09/28 04:45:35;;;;;;;13.68;6.78;;;;;;;11.61;100.00;100682.50;5157518;27;20126;-65
2023/09/28 04:48:01;;;;;;;12.55;7.05;;;;;;;11.74;100.00;100670.44;5157192;27;20042;-63
2023/09/28 04:50:27;;;;;;;18.55;7.40;;;;;;;11.90;100.00;100679.69;5157547;27;20062;-64
2023/09/28 04:52:55;;;;;;;12.55;7.18;;;;;;;12.30;100.00;100656.38;5157325;27;20134;-62
2023/09/28 04:55:21;;;;;;;18.77;7.97;;;;;;;12.70;100.00;100596.81;5157180;27;20154;-63
2023/09/28 04:57:47;;;;;;;10.30;6.03;;;;;;;13.14;100.00;100483.28;5157181;27;20047;-64
2023/09/28 05:00:16;;;;;;;8.48;6.35;;;;;;;13.39;100.00;100333.34;5158736;27;20046;-65
2023/09/28 05:02:42;;;;;;;14.90;6.50;;;;;;;13.54;100.00;100171.16;5160588;27;20054;-65
2023/09/28 05:05:09;;;;;;;16.17;7.28;;;;;;;13.84;100.00;100012.31;5160508;27;20058;-63
2023/09/28 05:07:35;;;;;;;18.38;7.43;;;;;;;14.21;100.00;99795.88;5160831;27;20137;-65
2023/09/28 05:10:02;;;;;;;14.13;6.70;;;;;;;14.65;100.00;99608.41;5160276;27;20295;-64
2023/09/28 05:12:28;;;;;;;11.15;6.57;;;;;;;14.96;100.00;99443.41;5160730;27;20057;-65
2023/09/28 05:14:54;;;;;;;11.80;6.32;;;;;;;15.22;100.00;99348.44;5160250;27;20137;-64
2023/09/28 05:17:20;;;;;;;9.10;6.05;;;;;;;15.50;100.00;99292.44;5160718;27;20050;-65
2023/09/28 05:19:45;;;;;;;9.82;6.07;;;;;;;15.96;100.00;99273.06;5159878;27;20332;-65
2023/09/28 05:22:13;;;;;;;14.35;6.85;;;;;;;16.19;100.00;99271.81;5160142;27;20407;-65
2023/09/28 05:24:39;;;;;;;11.98;7.43;;;;;;;16.35;100.00;99280.44;5160447;27;20053;-65
2023/09/28 05:27:05;;;;;;;11.75;6.53;;;;;;;16.70;100.00;99318.25;5160814;27;20074;-66
2023/09/28 05:29:30;;;;;;;11.50;6.15;;;;;;;16.92;100.00;99337.56;5160669;27;20320;-66
2023/09/28 05:31:56;;;;;;;17.10;7.55;;;;;;;17.35;100.00;99393.50;5159920;27;20073;-67
2023/09/28 05:34:22;;;;;;;19.63;6.45;;;;;;;17.67;100.00;99416.69;5160513;27;20051;-64
2023/09/28 05:36:48;;;;;;;15.32;7.78;;;;;;;18.02;100.00;99498.88;5159802;27;20156;-62
2023/09/28 05:39:15;;;;;;;17.75;7.25;;;;;;;18.12;100.00;99528.53;5159964;27;20227;-59
2023/09/28 05:41:42;;;;;;;17.50;9.70;;;;;;;18.66;100.00;99534.47;5159839;27;20137;-66
2023/09/28 05:44:08;;;;;;;16.65;7.38;;;;;;;18.84;100.00;99612.09;5159998;27;20400;-67
2023/09/28 05:46:35;;;;;;;23.13;15.68;;;;;;;18.99;100.00;99596.88;5159654;27;20057;-67
2023/09/28 05:49:01;;;;;;;24.58;10.52;;;;;;;18.90;100.00;99627.13;5159976;27;20110;-65
2023/09/28 05:51:27;;;;;;;16.05;12.75;;;;;;;19.37;100.00;99607.22;5159486;27;20420;-63
2023/09/28 05:53:54;;;;;;;16.23;6.55;;;;;;;19.45;100.00;99664.31;5159562;27;20054;-63
2023/09/28 05:56:21;;;;;;;15.48;7.47;;;;;;;19.72;100.00;99675.56;5159637;27;20285;-63
2023/09/28 05:58:47;;;;;;;15.60;7.35;;;;;;;19.99;100.00;99670.09;5159411;27;20065;-63
2023/09/28 06:01:16;;;;;;;17.15;7.00;;;;;;;20.31;100.00;99719.78;5159783;27;20137;-66
2023/09/28 06:03:42;;;;;;;23.15;7.25;;;;;;;20.60;100.00;99719.47;5159067;27;20046;-65
2023/09/28 06:06:14;;;;;;;21.83;10.98;;;;;;;20.75;100.00;99754.25;5159655;27;20057;-60
2023/09/28 06:08:40;;;;;;;23.40;8.32;;;;;;;20.85;100.00;99747.72;5159211;27;20419;-60
2023/09/28 06:11:05;;;;;;;19.90;9.50;;;;;;;21.20;100.00;99790.22;5159288;27;20047;-62
2023/09/28 06:13:32;;;;;;;17.15;8.60;;;;;;;21.11;100.00;99781.59;5159204;27;20082;-60
2023/09/28 06:15:58;;;;;;;23.15;10.23;;;;;;;21.32;100.00;99803.56;5159602;27;20069;-60
2023/09/28 06:18:24;;;;;;;16.10;8.65;;;;;;;21.76;100.00;99787.72;5159178;27;20133;-62
2023/09/28 06:20:50;;;;;;;22.13;12.40;;;;;;;22.07;100.00;99823.84;5159102;27;20305;-63
2023/09/28 06:23:17;;;;;;;22.38;9.93;;;;;;;21.78;100.00;99838.31;5158682;27;20141;-64
2023/09/28 06:25:44;;;;;;;28.30;10.90;;;;;;;21.93;100.00;99822.13;5158974;27;20046;-65
2023/09/28 06:28:10;;;;;;;37.38;12.13;;;;;;;22.29;100.00;99843.81;5159154;27;20058;-61
2023/09/28 06:30:37;;;;;;;34.05;10.45;;;;;;;22.44;100.00;99855.50;5158838;27;20554;-60
2023/09/28 06:33:03;;;;;;;31.85;16.65;;;;;;;22.53;100.00;99866.91;5159048;27;20487;-62
2023/09/28 06:35:29;;;;;;;32.25;11.00;;;;;;;22.47;100.00;99851.84;5158787;27;20133;-63
2023/09/28 06:37:55;;;;;;;31.80;11.57;;;;;;;23.02;100.00;99878.28;5159248;27;20096;-65
2023/09/28 06:40:21;;;;;;;36.63;15.75;;;;;;;23.14;100.00;99891.63;5158703;27;20137;-64
2023/09/28 06:42:47;;;;;;;33.45;10.75;;;;;;;23.38;100.00;99897.88;5159130;27;20092;-67
2023/09/28 06:45:14;;;;;;;22.33;11.20;;;;;;;23.37;100.00;99909.50;5158786;27;20133;-66
2023/09/28 06:47:40;;;;;;;23.77;11.02;;;;;;;23.46;100.00;99916.09;5158818;27;20404;-65
2023/09/28 06:50:07;;;;;;;36.88;15.27;;;;;;;23.98;100.00;99917.28;5158554;27;20047;-62
2023/09/28 06:52:33;;;;;;;28.98;10.80;;;;;;;24.23;100.00;99929.88;5158793;27;20445;-66
2023/09/28 06:54:59;;;;;;;30.88;14.40;;;;;;;24.58;100.00;99926.13;5158778;27;20111;-62
2023/09/28 06:57:25;;;;;;;27.55;12.40;;;;;;;24.26;100.00;99918.56;5158691;27;20129;-60
2023/09/28 06:59:51;;;;;;;24.73;12.70;;;;;;;24.12;100.00;99918.91;5158954;27;20054;-62
2023/09/28 07:02:17;;;;;;;26.67;12.88;;;;;;;24.85;100.00;99922.97;5158549;27;20598;-61
2023/09/28 07:04:44;;;;;;;23.85;12.55;;;;;;;24.96;100.00;99931.09;5158710;27;20046;-63
2023/09/28 07:07:13;;;;;;;31.17;15.45;;;;;;;24.73;100.00;99914.53;5158519;27;20137;-62
2023/09/28 07:09:39;;;;;;;28.52;12.35;;;;;;;24.83;100.00;99917.03;5158604;27;20427;-60
2023/09/28 07:12:05;;;;;;;25.13;7.97;;;;;;;25.61;100.00;99918.72;5158381;27;20129;-59
2023/09/28 07:14:31;;;;;;;24.65;8.50;;;;;;;25.03;100.00;99922.47;5158813;27;20135;-60
2023/09/28 07:16:58;;;;;;;21.10;9.15;;;;;;;24.93;100.00;99908.78;5158250;27;20054;-62
2023/09/28 07:19:26;;;;;;;22.42;8.30;;;;;;;25.46;100.00;99915.59;5158504;27;20059;-60
2023/09/28 07:21:53;;;;;;;23.35;8.60;;;;;;;25.69;94.40;99922.09;5157509;27;20047;-61
2023/09/28 07:24:19;;;;;;;26.55;9.77;;;;;;;25.35;94.33;99917.94;5158037;27;20466;-63
2023/09/28 07:26:46;;;;;;;26.70;12.70;;;;;;;25.83;95.36;99921.69;5158511;27;20047;-65
2023/09/28 07:29:12;;;;;;;17.85;9.68;;;;;;;26.08;91.03;99922.88;5158284;27;20163;-64
2023/09/28 07:31:38;;;;;;;21.05;8.98;;;;;;;26.47;89.35;99925.13;5158571;27;20046;-61
2023/09/28 07:34:05;;;;;;;15.73;9.00;;;;;;;26.32;91.59;99923.25;5158176;27;20061;-65
2023/09/28 07:36:31;;;;;;;19.30;8.63;;;;;;;26.37;91.29;99933.94;5158386;27;20130;-62
2023/09/28 07:38:58;;;;;;;14.30;7.82;;;;;;;26.65;90.46;99935.75;5157978;27;20440;-61
2023/09/28 07:41:24;;;;;;;22.05;8.00;;;;;;;26.69;89.89;99941.22;5158379;27;20046;-60
2023/09/28 07:43:50;;;;;;;13.15;8.10;;;;;;;26.88;89.93;99936.53;5157734;27;20046;-64
2023/09/28 07:46:16;;;;;;;11.40;6.75;;;;;;;25.83;89.79;99937.75;5158119;27;20209;-63
2023/09/28 07:48:42;;;;;;;16.75;9.15;;;;;;;25.65;90.84;99947.47;5157650;27;20061;-63
2023/09/28 07:51:08;;;;;;;16.38;8.60;;;;;;;26.70;88.39;99945.63;5157941;27;20057;-63
2023/09/28 07:53:34;;;;;;;10.30;7.07;;;;;;;26.05;89.24;99949.84;5158071;27;20055;-59
2023/09/28 07:56:01;;;;;;;23.27;8.43;;;;;;;25.84;89.61;99945.72;5157816;27;20078;-61
2023/09/28 07:58:27;;;;;;;15.10;8.90;;;;;;;26.01;91.87;99947.16;5157980;27;20055;-63
2023/09/28 08:00:52;;;;;;;16.25;9.02;;;;;;;26.36;88.44;99947.19;5156619;27;20192;-64
2023/09/28 08:03:18;;;;;;;21.75;9.27;;;;;;;26.51;89.06;99951.09;5157466;27;20330;-66
2023/09/28 08:05:44;;;;;;;12.82;7.18;;;;;;;25.88;93.37;99945.59;5157669;27;20142;-64
2023/09/28 08:08:11;;;;;;;11.10;7.85;;;;;;;26.66;88.02;99954.22;5141480;27;20044;-60
2023/09/28 08:10:37;;;;;;;12.18;6.75;;;;;;;26.60;89.16;99958.84;5140400;27;20111;-61
2023/09/28 08:13:04;;;;;;;21.48;8.57;;;;;;;27.28;86.70;99952.78;5137329;28;20055;-61
2023/09/28 08:15:30;;;;;;;13.60;6.20;;;;;;;27.36;85.43;99956.91;5139072;27;20103;-57
2023/09/28 08:17:56;;;;;;;13.38;6.22;;;;;;;26.52;87.57;99955.50;5137033;28;20431;-62
2023/09/28 08:20:23;;;;;;;10.43;5.90;;;;;;;26.22;90.38;99953.28;5153503;27;20061;-64
2023/09/28 08:22:48;;;;;;;12.07;5.47;;;;;;;26.33;87.96;99955.75;5157382;27;20046;-61
2023/09/28 08:25:14;;;;;;;17.95;7.65;;;;;;;27.72;84.34;99958.28;5157655;27;20054;-61
2023/09/28 08:27:41;;;;;;;18.05;8.02;;;;;;;27.51;85.60;99960.72;5157168;27;20328;-59
2023/09/28 08:30:09;;;;;;;23.35;10.80;;;;;;;27.74;85.56;99955.81;5157461;27;20127;-59
2023/09/28 08:32:35;;;;;;;16.45;7.97;;;;;;;27.14;90.50;99954.88;5157186;27;20126;-64
2023/09/28 08:35:01;;;;;;;14.15;7.65;;;;;;;27.28;89.49;99952.78;5160597;27;20420;-65
2023/09/28 08:37:28;;;;;;;12.32;7.38;;;;;;;27.06;88.15;99950.75;5160971;27;20057;-64
2023/09/28 08:39:55;;;;;;;16.45;6.72;;;;;;;26.93;86.35;99961.28;5161181;27;20047;-59
2023/09/28 08:42:25;;;;;;;12.48;8.32;;;;;;;26.86;89.61;99947.47;5160687;27;20416;-63
2023/09/28 08:44:59;;;;;;;26.33;9.90;;;;;;;27.51;84.91;99957.91;5160824;27;20058;-63
2023/09/28 08:47:29;;;;;;;17.88;8.40;;;;;;;26.90;90.91;99942.50;5160859;27;20055;-60
2023/09/28 08:49:56;;;;;;;19.33;8.43;;;;;;;27.39;90.42;99944.69;5160784;27;20064;-59
2023/09/28 08:52:24;;;;;;;17.13;8.00;;;;;;;27.26;88.08;99952.44;5161061;27;20050;-62
2023/09/28 08:54:52;;;;;;;18.73;9.25;;;;;;;26.96;96.04;99949.91;5160527;27;20078;-61
2023/09/28 08:57:18;;;;;;;19.25;8.35;;;;;;;26.48;97.21;99943.56;5160654;27;20115;-63
2023/09/28 08:59:44;;;;;;;17.85;8.00;;;;;;;27.34;90.66;99936.84;5160424;27;20046;-57
2023/09/28 09:02:11;;;;;;;22.88;8.30;;;;;;;27.67;88.87;99946.38;5160843;27;20051;-63
2023/09/28 09:04:38;;;;;;;14.02;8.05;;;;;;;27.62;86.94;99946.19;5160306;27;20212;-59
2023/09/28 09:07:05;;;;;;;13.93;7.53;;;;;;;27.71;88.18;99948.28;5160740;27;20061;-60
2023/09/28 09:09:34;;;;;;;23.38;8.55;;;;;;;27.39;94.69;99934.22;5160568;27;20133;-62
2023/09/28 09:12:05;;;;;;;10.55;7.20;;;;;;;27.79;87.74;99949.59;5160406;27;20312;-61
2023/09/28 09:14:31;;;;;;;15.95;6.90;;;;;;;27.82;85.90;99951.47;5160532;27;20058;-57
2023/09/28 09:16:58;;;;;;;16.65;7.20;;;;;;;27.40;89.34;99944.25;5160229;27;20055;-61
2023/09/28 09:19:29;;;;;;;12.18;6.20;;;;;;;27.89;86.50;99945.53;5160431;27;20348;-59
2023/09/28 09:21:57;;;;;;;12.73;6.88;;;;;;;26.27;89.76;99941.47;5160065;27;20099;-60
2023/09/28 09:24:23;;;;;;;11.52;6.38;;;;;;;26.68;91.11;99940.47;5159728;27;20387;-63
2023/09/28 09:26:52;;;;;;;10.18;5.72;;;;;;;27.63;85.99;99945.75;5159699;27;20193;-59
2023/09/28 09:29:20;;;;;;;15.75;5.85;;;;;;;27.43;87.74;99939.72;5160431;27;20078;-59
2023/09/28 09:31:47;;;;;;;15.77;5.93;;;;;;;27.96;86.68;99944.47;5159861;27;20134;-62
2023/09/28 09:34:16;;;;;;;15.45;6.32;;;;;;;27.75;85.10;99946.09;5160337;27;20066;-63
2023/09/28 09:36:43;;;;;;;11.45;5.18;;;;;;;27.27;88.46;99931.50;5160318;27;20373;-58
2023/09/28 09:39:21;;;;;;;11.35;5.50;;;;;;;26.65;89.93;99930.13;5159742;27;20129;-63
2023/09/28 09:41:49;;;;;;;13.45;5.80;;;;;;;27.01;88.14;99934.44;5160094;27;20431;-61
2023/09/28 09:44:17;;;;;;;11.88;6.13;;;;;;;27.18;90.67;99926.59;5159571;27;20122;-59
2023/09/28 09:46:43;;;;;;;11.15;5.95;;;;;;;25.54;97.18;99916.16;5159187;27;20312;-60
2023/09/28 09:49:10;;;;;;;12.18;6.15;;;;;;;25.80;96.74;99922.56;5159470;27;20054;-59
2023/09/28 09:51:39;;;;;;;10.05;5.40;;;;;;;26.98;90.24;99924.09;5160142;27;20043;-64
2023/09/28 09:54:08;;;;;;;12.18;5.55;;;;;;;27.03;90.89;99922.75;5159814;27;20165;-64
2023/09/28 09:56:35;;;;;;;15.57;6.43;;;;;;;26.25;99.77;99911.00;5160105;27;20051;-62
2023/09/28 09:59:05;;;;;;;18.75;6.47;;;;;;;26.79;94.97;99919.59;5159893;27;20103;-63
2023/09/28 10:01:34;;;;;;;13.98;6.30;;;;;;;27.04;92.44;99913.81;5159643;27;20141;-63
2023/09/28 10:04:04;;;;;;;12.13;5.95;;;;;;;27.10;85.37;99916.84;5159607;27;20061;-61
2023/09/28 10:06:31;;;;;;;12.50;6.43;;;;;;;27.01;88.20;99913.97;5159504;27;20131;-62
2023/09/28 10:08:57;;;;;;;11.18;5.82;;;;;;;27.00;86.99;99921.63;5159732;27;20203;-62
2023/09/28 10:11:24;;;;;;;14.18;5.38;;;;;;;26.59;89.02;99912.28;5159251;27;20343;-61
2023/09/28 10:13:51;;;;;;;12.57;5.22;;;;;;;26.31;93.22;99919.66;5159768;27;20145;-59
2023/09/28 10:16:19;;;;;;;9.60;5.60;;;;;;;26.54;90.12;99912.06;5159282;27;20055;-60
2023/09/28 10:18:47;;;;;;;7.13;5.30;;;;;;;25.88;95.79;99912.66;5159699;27;20427;-62
2023/09/28 10:21:15;;;;;;;14.15;5.85;;;;;;;25.87;91.45;99921.56;5159139;27;20049;-61
2023/09/28 10:23:41;;;;;;;13.27;4.85;;;;;;;25.54;95.61;99904.94;5159341;27;20146;-57
2023/09/28 10:26:12;;;;;;;9.75;4.95;;;;;;;25.55;94.25;99907.28;5154062;27;20137;-59
2023/09/28 10:29:04;;;;;;;12.90;4.90;;;;;;;25.15;95.79;99908.94;5159052;27;20050;-61
2023/09/28 10:31:30;;;;;;;12.27;5.80;;;;;;;24.36;100.00;99892.28;5151943;27;20043;-61
2023/09/28 10:34:00;;;;;;;9.07;5.30;;;;;;;25.45;100.00;99897.16;5158645;27;20141;-64
2023/09/28 10:36:26;;;;;;;8.27;5.00;;;;;;;25.39;95.27;99904.59;5158644;27;20134;-61
2023/09/28 10:39:09;;;;;;;12.10;5.75;;;;;;;25.20;97.10;99903.56;5158937;27;20046;-61
2023/09/28 10:41:36;;;;;;;9.23;5.32;;;;;;;25.43;92.15;99913.69;5158873;27;20046;-59
2023/09/28 10:44:12;;;;;;;8.32;4.90;;;;;;;24.57;100.00;99888.13;5158785;27;20157;-58
2023/09/28 10:46:38;;;;;;;7.88;4.97;;;;;;;24.80;100.00;99892.69;5158504;27;20050;-62
2023/09/28 10:49:04;;;;;;;9.18;5.57;;;;;;;24.91;93.39;99897.97;5157712;27;20314;-62
2023/09/28 10:51:30;;;;;;;11.23;5.80;;;;;;;24.65;99.98;99883.09;5158741;27;20149;-62
2023/09/28 10:53:56;;;;;;;7.10;4.90;;;;;;;25.11;96.19;99890.19;5158921;27;20051;-60
2023/09/28 10:56:22;;;;;;;8.35;5.22;;;;;;;24.62;98.31;99887.59;5158020;27;20058;-62
2023/09/28 10:58:49;;;;;;;6.28;5.20;;;;;;;24.51;95.49;99895.50;5158164;27;20149;-61
2023/09/28 11:01:16;;;;;;;6.45;4.40;;;;;;;25.09;90.06;99894.63;5158546;27;20043;-59
2023/09/28 11:03:42;;;;;;;94.47;12.10;;;;;;;25.23;87.49;99897.06;5158801;27;20055;-61
2023/09/28 11:06:09;;;;;;;7.80;5.32;;;;;;;24.46;90.40;99884.03;5158148;27;20105;-58
2023/09/28 11:08:36;;;;;;;34.40;6.90;;;;;;;24.88;93.07;99888.44;5157577;27;20050;-62
2023/09/28 11:11:03;;;;;;;21.10;4.85;;;;;;;24.18;95.93;99887.13;5150118;27;20051;-62
2023/09/28 11:13:29;;;;;;;10.80;5.75;;;;;;;23.32;100.00;99866.03;5150872;27;20051;-61
2023/09/28 11:15:55;;;;;;;16.00;4.40;;;;;;;23.74;100.00;99877.47;5158436;27;20050;-60